Terminal Aerodrome Forecast
Issued by NWS Dallas/Fort Worth, TX

Home | Current Version | Previous Version | Text Only | Print | Product List | Glossary On
Versions: 1 2 3 4 5 6 7 8 9 10 11 12 13 14 15 16 17 18 19 20 21 22 23 24 25 26 27 28 29 30 31 32 33
000
FTUS44 KFWD 180920 AAA
TAFDFW
TAF AMD
KDFW 180920Z 1809/1912 19010KT P6SM FEW015 BKN300
     FM181300 23015KT P6SM FEW020 BKN250
     FM181500 33025G37KT P6SM SCT250
     FM182300 35015KT P6SM SKC=

USA.gov is the U.S. government's official web portal to all federal, state and local government web resources and services.